sensor_id;sensor_type;location;lat;lon;timestamp;temperature;humidity
12307;DHT22;6216;51.146;7.008;2022-08-21T00:00:30;20.30;99.90
12307;DHT22;6216;51.146;7.008;2022-08-21T00:03:01;20.20;99.90
12307;DHT22;6216;51.146;7.008;2022-08-21T00:05:31;20.20;99.90
12307;DHT22;6216;51.146;7.008;2022-08-21T00:08:00;20.20;99.90
12307;DHT22;6216;51.146;7.008;2022-08-21T00:10:28;20.10;99.90
12307;DHT22;6216;51.146;7.008;2022-08-21T00:12:57;20.10;99.90
12307;DHT22;6216;51.146;7.008;2022-08-21T00:15:27;20.10;99.90
12307;DHT22;6216;51.146;7.008;2022-08-21T00:17:56;20.00;99.90
12307;DHT22;6216;51.146;7.008;2022-08-21T00:20:24;20.00;99.90
12307;DHT22;6216;51.146;7.008;2022-08-21T00:22:53;20.00;99.90
12307;DHT22;6216;51.146;7.008;2022-08-21T00:25:25;20.00;99.90
12307;DHT22;6216;51.146;7.008;2022-08-21T00:27:55;20.00;99.90
12307;DHT22;6216;51.146;7.008;2022-08-21T00:30:24;20.00;99.90
12307;DHT22;6216;51.146;7.008;2022-08-21T00:32:54;19.90;99.90
12307;DHT22;6216;51.146;7.008;2022-08-21T00:35:25;19.90;99.90
12307;DHT22;6216;51.146;7.008;2022-08-21T00:37:53;19.90;99.90
12307;DHT22;6216;51.146;7.008;2022-08-21T00:40:26;19.80;99.90
12307;DHT22;6216;51.146;7.008;2022-08-21T00:42:54;19.80;99.90
12307;DHT22;6216;51.146;7.008;2022-08-21T00:45:23;19.80;99.90
12307;DHT22;6216;51.146;7.008;2022-08-21T00:47:52;19.70;99.90
12307;DHT22;6216;51.146;7.008;2022-08-21T00:50:22;19.70;99.90
12307;DHT22;6216;51.146;7.008;2022-08-21T00:52:51;19.80;99.90
12307;DHT22;6216;51.146;7.008;2022-08-21T00:55:22;19.70;99.90
12307;DHT22;6216;51.146;7.008;2022-08-21T00:57:55;19.70;99.90
12307;DHT22;6216;51.146;7.008;2022-08-21T01:00:28;19.70;99.90
12307;DHT22;6216;51.146;7.008;2022-08-21T01:02:57;19.70;99.90
12307;DHT22;6216;51.146;7.008;2022-08-21T01:05:26;19.80;99.90
12307;DHT22;6216;51.146;7.008;2022-08-21T01:07:55;19.70;99.90
12307;DHT22;6216;51.146;7.008;2022-08-21T01:10:24;19.70;99.90
12307;DHT22;6216;51.146;7.008;2022-08-21T01:12:55;19.60;99.90
12307;DHT22;6216;51.146;7.008;2022-08-21T01:15:26;19.60;99.90
12307;DHT22;6216;51.146;7.008;2022-08-21T01:17:57;19.70;99.90
12307;DHT22;6216;51.146;7.008;2022-08-21T01:20:25;19.70;99.90
12307;DHT22;6216;51.146;7.008;2022-08-21T01:23:00;19.70;99.90
12307;DHT22;6216;51.146;7.008;2022-08-21T01:25:28;19.80;99.90
12307;DHT22;6216;51.146;7.008;2022-08-21T01:27:57;19.80;99.90
12307;DHT22;6216;51.146;7.008;2022-08-21T01:30:28;19.80;99.90
12307;DHT22;6216;51.146;7.008;2022-08-21T01:32:56;19.80;99.90
12307;DHT22;6216;51.146;7.008;2022-08-21T01:35:25;19.70;99.90
12307;DHT22;6216;51.146;7.008;2022-08-21T01:37:53;19.70;99.90
12307;DHT22;6216;51.146;7.008;2022-08-21T01:40:23;19.70;99.90
12307;DHT22;6216;51.146;7.008;2022-08-21T01:42:51;19.70;99.90
12307;DHT22;6216;51.146;7.008;2022-08-21T01:45:20;19.60;99.90
12307;DHT22;6216;51.146;7.008;2022-08-21T01:47:48;19.60;99.90
12307;DHT22;6216;51.146;7.008;2022-08-21T01:50:18;19.50;99.90
12307;DHT22;6216;51.146;7.008;2022-08-21T01:52:47;19.50;99.90
12307;DHT22;6216;51.146;7.008;2022-08-21T01:55:16;19.40;99.90
12307;DHT22;6216;51.146;7.008;2022-08-21T01:57:46;19.30;99.90
12307;DHT22;6216;51.146;7.008;2022-08-21T02:00:16;19.30;99.90
12307;DHT22;6216;51.146;7.008;2022-08-21T02:02:44;19.30;99.90
12307;DHT22;6216;51.146;7.008;2022-08-21T02:05:12;19.30;99.90
12307;DHT22;6216;51.146;7.008;2022-08-21T02:07:43;19.20;99.90
12307;DHT22;6216;51.146;7.008;2022-08-21T02:10:13;19.20;99.90
12307;DHT22;6216;51.146;7.008;2022-08-21T02:12:41;19.10;99.90
12307;DHT22;6216;51.146;7.008;2022-08-21T02:15:11;19.10;99.90
12307;DHT22;6216;51.146;7.008;2022-08-21T02:17:41;19.10;99.90
12307;DHT22;6216;51.146;7.008;2022-08-21T02:20:14;19.10;99.90
12307;DHT22;6216;51.146;7.008;2022-08-21T02:22:43;19.10;99.90
12307;DHT22;6216;51.146;7.008;2022-08-21T02:25:11;19.10;99.90
12307;DHT22;6216;51.146;7.008;2022-08-21T02:27:40;19.00;99.90
12307;DHT22;6216;51.146;7.008;2022-08-21T02:30:12;19.00;99.90
12307;DHT22;6216;51.146;7.008;2022-08-21T02:32:41;19.00;99.90
12307;DHT22;6216;51.146;7.008;2022-08-21T02:35:09;19.00;99.90
12307;DHT22;6216;51.146;7.008;2022-08-21T02:37:46;18.90;99.90
12307;DHT22;6216;51.146;7.008;2022-08-21T02:40:15;18.90;99.90
12307;DHT22;6216;51.146;7.008;2022-08-21T02:42:44;18.90;99.90
12307;DHT22;6216;51.146;7.008;2022-08-21T02:45:14;18.90;99.90
12307;DHT22;6216;51.146;7.008;2022-08-21T02:47:48;18.90;99.90
12307;DHT22;6216;51.146;7.008;2022-08-21T02:50:19;18.80;99.90
12307;DHT22;6216;51.146;7.008;2022-08-21T02:52:48;18.80;99.90
12307;DHT22;6216;51.146;7.008;2022-08-21T02:55:21;18.80;99.90
12307;DHT22;6216;51.146;7.008;2022-08-21T02:57:50;18.70;99.90
12307;DHT22;6216;51.146;7.008;2022-08-21T03:00:20;18.70;99.90
12307;DHT22;6216;51.146;7.008;2022-08-21T03:02:48;18.70;99.90
12307;DHT22;6216;51.146;7.008;2022-08-21T03:05:17;18.70;99.90
12307;DHT22;6216;51.146;7.008;2022-08-21T03:07:47;18.70;99.90
12307;DHT22;6216;51.146;7.008;2022-08-21T03:10:15;18.60;99.90
12307;DHT22;6216;51.146;7.008;2022-08-21T03:12:43;18.60;99.90
12307;DHT22;6216;51.146;7.008;2022-08-21T03:15:14;18.70;99.90
12307;DHT22;6216;51.146;7.008;2022-08-21T03:17:46;18.60;99.90
12307;DHT22;6216;51.146;7.008;2022-08-21T03:20:16;18.60;99.90
12307;DHT22;6216;51.146;7.008;2022-08-21T03:22:44;18.60;99.90
12307;DHT22;6216;51.146;7.008;2022-08-21T03:25:25;18.60;99.90
12307;DHT22;6216;51.146;7.008;2022-08-21T03:28:08;18.60;99.90
12307;DHT22;6216;51.146;7.008;2022-08-21T03:30:39;18.60;99.90
12307;DHT22;6216;51.146;7.008;2022-08-21T03:33:08;18.60;99.90
12307;DHT22;6216;51.146;7.008;2022-08-21T03:35:39;18.60;99.90
12307;DHT22;6216;51.146;7.008;2022-08-21T03:38:07;18.50;99.90
12307;DHT22;6216;51.146;7.008;2022-08-21T03:40:35;18.50;99.90
12307;DHT22;6216;51.146;7.008;2022-08-21T03:43:03;18.60;99.90
12307;DHT22;6216;51.146;7.008;2022-08-21T03:45:31;18.60;99.90
12307;DHT22;6216;51.146;7.008;2022-08-21T03:48:03;18.50;99.90
12307;DHT22;6216;51.146;7.008;2022-08-21T03:50:35;18.50;99.90
12307;DHT22;6216;51.146;7.008;2022-08-21T03:53:07;18.40;99.90
12307;DHT22;6216;51.146;7.008;2022-08-21T03:55:44;18.30;99.90
12307;DHT22;6216;51.146;7.008;2022-08-21T03:58:13;18.30;99.90
12307;DHT22;6216;51.146;7.008;2022-08-21T04:00:43;18.30;99.90
12307;DHT22;6216;51.146;7.008;2022-08-21T04:03:11;18.30;99.90
12307;DHT22;6216;51.146;7.008;2022-08-21T04:05:41;18.30;99.90
12307;DHT22;6216;51.146;7.008;2022-08-21T04:08:08;18.40;99.90
12307;DHT22;6216;51.146;7.008;2022-08-21T04:10:38;18.30;99.90
12307;DHT22;6216;51.146;7.008;2022-08-21T04:13:08;18.40;99.90
12307;DHT22;6216;51.146;7.008;2022-08-21T04:15:36;18.30;99.90
12307;DHT22;6216;51.146;7.008;2022-08-21T04:18:04;18.30;99.90
12307;DHT22;6216;51.146;7.008;2022-08-21T04:20:33;18.30;99.90
12307;DHT22;6216;51.146;7.008;2022-08-21T04:23:03;18.20;99.90
12307;DHT22;6216;51.146;7.008;2022-08-21T04:25:31;18.20;99.90
12307;DHT22;6216;51.146;7.008;2022-08-21T04:27:59;18.20;99.90
12307;DHT22;6216;51.146;7.008;2022-08-21T04:30:28;18.20;99.90
12307;DHT22;6216;51.146;7.008;2022-08-21T04:32:58;18.10;99.90
12307;DHT22;6216;51.146;7.008;2022-08-21T04:35:27;18.20;99.90
12307;DHT22;6216;51.146;7.008;2022-08-21T04:37:57;18.20;99.90
12307;DHT22;6216;51.146;7.008;2022-08-21T04:40:27;18.10;99.90
12307;DHT22;6216;51.146;7.008;2022-08-21T04:42:57;18.20;99.90
12307;DHT22;6216;51.146;7.008;2022-08-21T04:45:28;18.20;99.90
12307;DHT22;6216;51.146;7.008;2022-08-21T04:47:57;18.20;99.90
12307;DHT22;6216;51.146;7.008;2022-08-21T04:50:29;18.20;99.90
12307;DHT22;6216;51.146;7.008;2022-08-21T04:52:58;18.20;99.90
12307;DHT22;6216;51.146;7.008;2022-08-21T04:55:29;18.20;99.90
12307;DHT22;6216;51.146;7.008;2022-08-21T04:57:57;18.20;99.90
12307;DHT22;6216;51.146;7.008;2022-08-21T05:00:25;18.20;99.90
12307;DHT22;6216;51.146;7.008;2022-08-21T05:02:54;18.20;99.90
12307;DHT22;6216;51.146;7.008;2022-08-21T05:05:27;18.20;99.90
12307;DHT22;6216;51.146;7.008;2022-08-21T05:07:57;18.20;99.90
12307;DHT22;6216;51.146;7.008;2022-08-21T05:10:26;18.20;99.90
12307;DHT22;6216;51.146;7.008;2022-08-21T05:12:56;18.10;99.90
12307;DHT22;6216;51.146;7.008;2022-08-21T05:15:24;18.10;99.90
12307;DHT22;6216;51.146;7.008;2022-08-21T05:17:52;18.10;99.90
12307;DHT22;6216;51.146;7.008;2022-08-21T05:20:27;18.10;99.90
12307;DHT22;6216;51.146;7.008;2022-08-21T05:22:55;18.10;99.90
12307;DHT22;6216;51.146;7.008;2022-08-21T05:25:24;18.00;99.90
12307;DHT22;6216;51.146;7.008;2022-08-21T05:27:55;18.00;99.90
12307;DHT22;6216;51.146;7.008;2022-08-21T05:30:26;18.00;99.90
12307;DHT22;6216;51.146;7.008;2022-08-21T05:32:57;18.00;99.90
12307;DHT22;6216;51.146;7.008;2022-08-21T05:35:26;17.90;99.90
12307;DHT22;6216;51.146;7.008;2022-08-21T05:37:55;18.00;99.90
12307;DHT22;6216;51.146;7.008;2022-08-21T05:40:23;18.00;99.90
12307;DHT22;6216;51.146;7.008;2022-08-21T05:42:53;18.00;99.90
12307;DHT22;6216;51.146;7.008;2022-08-21T05:45:26;18.00;99.90
12307;DHT22;6216;51.146;7.008;2022-08-21T05:48:11;18.00;99.90
12307;DHT22;6216;51.146;7.008;2022-08-21T05:50:42;18.00;99.90
12307;DHT22;6216;51.146;7.008;2022-08-21T05:53:22;18.00;99.90
12307;DHT22;6216;51.146;7.008;2022-08-21T05:55:52;18.10;99.90
12307;DHT22;6216;51.146;7.008;2022-08-21T05:58:21;18.10;99.90
12307;DHT22;6216;51.146;7.008;2022-08-21T06:00:51;18.10;99.90
12307;DHT22;6216;51.146;7.008;2022-08-21T06:03:25;18.20;99.90
12307;DHT22;6216;51.146;7.008;2022-08-21T06:05:54;18.20;99.90
12307;DHT22;6216;51.146;7.008;2022-08-21T06:08:26;18.20;99.90
12307;DHT22;6216;51.146;7.008;2022-08-21T06:10:56;18.30;99.90
12307;DHT22;6216;51.146;7.008;2022-08-21T06:13:25;18.30;99.90
12307;DHT22;6216;51.146;7.008;2022-08-21T06:16:03;18.30;99.90
12307;DHT22;6216;51.146;7.008;2022-08-21T06:18:33;18.30;99.90
12307;DHT22;6216;51.146;7.008;2022-08-21T06:21:01;18.40;99.90
12307;DHT22;6216;51.146;7.008;2022-08-21T06:23:29;18.30;99.90
12307;DHT22;6216;51.146;7.008;2022-08-21T06:25:59;18.30;99.90
12307;DHT22;6216;51.146;7.008;2022-08-21T06:28:27;18.40;99.90
12307;DHT22;6216;51.146;7.008;2022-08-21T06:30:56;18.40;99.90
12307;DHT22;6216;51.146;7.008;2022-08-21T06:33:26;18.40;99.90
12307;DHT22;6216;51.146;7.008;2022-08-21T06:35:58;18.40;99.90
12307;DHT22;6216;51.146;7.008;2022-08-21T06:38:26;18.40;99.90
12307;DHT22;6216;51.146;7.008;2022-08-21T06:40:54;18.40;99.90
12307;DHT22;6216;51.146;7.008;2022-08-21T06:43:23;18.40;99.90
12307;DHT22;6216;51.146;7.008;2022-08-21T06:46:06;18.40;99.90
12307;DHT22;6216;51.146;7.008;2022-08-21T06:48:35;18.40;99.90
12307;DHT22;6216;51.146;7.008;2022-08-21T06:51:03;18.40;99.90
12307;DHT22;6216;51.146;7.008;2022-08-21T06:53:31;18.40;99.90
12307;DHT22;6216;51.146;7.008;2022-08-21T06:55:59;18.50;99.90
12307;DHT22;6216;51.146;7.008;2022-08-21T06:58:27;18.50;99.90
12307;DHT22;6216;51.146;7.008;2022-08-21T07:00:55;18.50;99.90
12307;DHT22;6216;51.146;7.008;2022-08-21T07:03:30;18.50;99.90
12307;DHT22;6216;51.146;7.008;2022-08-21T07:05:59;18.50;99.90
12307;DHT22;6216;51.146;7.008;2022-08-21T07:08:28;18.50;99.90
12307;DHT22;6216;51.146;7.008;2022-08-21T07:10:58;18.50;99.90
12307;DHT22;6216;51.146;7.008;2022-08-21T07:13:27;18.60;99.90
12307;DHT22;6216;51.146;7.008;2022-08-21T07:15:55;18.60;99.90
12307;DHT22;6216;51.146;7.008;2022-08-21T07:18:29;18.70;99.90
12307;DHT22;6216;51.146;7.008;2022-08-21T07:21:00;18.70;99.90
12307;DHT22;6216;51.146;7.008;2022-08-21T07:23:30;18.60;99.90
12307;DHT22;6216;51.146;7.008;2022-08-21T07:25:59;18.70;99.90
12307;DHT22;6216;51.146;7.008;2022-08-21T07:28:28;18.80;99.90
12307;DHT22;6216;51.146;7.008;2022-08-21T07:30:59;18.80;99.90
12307;DHT22;6216;51.146;7.008;2022-08-21T07:33:30;18.90;99.90
12307;DHT22;6216;51.146;7.008;2022-08-21T07:36:00;18.90;99.90
12307;DHT22;6216;51.146;7.008;2022-08-21T07:38:28;19.00;99.90
12307;DHT22;6216;51.146;7.008;2022-08-21T07:40:57;19.00;99.90
12307;DHT22;6216;51.146;7.008;2022-08-21T07:43:27;19.10;99.90
12307;DHT22;6216;51.146;7.008;2022-08-21T07:45:55;19.10;99.90
12307;DHT22;6216;51.146;7.008;2022-08-21T07:48:24;19.20;99.90
12307;DHT22;6216;51.146;7.008;2022-08-21T07:50:52;19.20;99.90
12307;DHT22;6216;51.146;7.008;2022-08-21T07:53:23;19.30;99.90
12307;DHT22;6216;51.146;7.008;2022-08-21T07:55:51;19.40;99.90
12307;DHT22;6216;51.146;7.008;2022-08-21T07:58:18;19.40;99.90
12307;DHT22;6216;51.146;7.008;2022-08-21T08:00:46;19.50;99.90
12307;DHT22;6216;51.146;7.008;2022-08-21T08:03:15;19.50;99.90
12307;DHT22;6216;51.146;7.008;2022-08-21T08:05:54;19.60;99.90
12307;DHT22;6216;51.146;7.008;2022-08-21T08:08:24;19.60;99.90
12307;DHT22;6216;51.146;7.008;2022-08-21T08:10:52;19.70;99.90
12307;DHT22;6216;51.146;7.008;2022-08-21T08:13:21;19.80;99.90
12307;DHT22;6216;51.146;7.008;2022-08-21T08:15:49;19.90;99.90
12307;DHT22;6216;51.146;7.008;2022-08-21T08:18:17;19.90;99.90
12307;DHT22;6216;51.146;7.008;2022-08-21T08:20:45;20.00;99.90
12307;DHT22;6216;51.146;7.008;2022-08-21T08:23:14;20.00;99.90
12307;DHT22;6216;51.146;7.008;2022-08-21T08:25:44;20.10;99.90
12307;DHT22;6216;51.146;7.008;2022-08-21T08:28:11;20.10;99.90
12307;DHT22;6216;51.146;7.008;2022-08-21T08:30:43;20.10;99.90
12307;DHT22;6216;51.146;7.008;2022-08-21T08:33:11;20.20;99.90
12307;DHT22;6216;51.146;7.008;2022-08-21T08:35:39;20.30;99.90
12307;DHT22;6216;51.146;7.008;2022-08-21T08:38:08;20.40;99.90
12307;DHT22;6216;51.146;7.008;2022-08-21T08:40:40;20.50;99.90
12307;DHT22;6216;51.146;7.008;2022-08-21T08:43:13;20.60;99.90
12307;DHT22;6216;51.146;7.008;2022-08-21T08:45:45;20.80;99.90
12307;DHT22;6216;51.146;7.008;2022-08-21T08:48:34;20.80;99.90
12307;DHT22;6216;51.146;7.008;2022-08-21T08:51:06;20.90;99.90
12307;DHT22;6216;51.146;7.008;2022-08-21T08:53:47;20.90;99.90
12307;DHT22;6216;51.146;7.008;2022-08-21T08:56:21;21.00;99.90
12307;DHT22;6216;51.146;7.008;2022-08-21T08:58:52;21.10;99.90
12307;DHT22;6216;51.146;7.008;2022-08-21T09:01:20;21.20;99.90
12307;DHT22;6216;51.146;7.008;2022-08-21T09:03:51;21.30;99.90
12307;DHT22;6216;51.146;7.008;2022-08-21T09:06:31;21.50;99.90
12307;DHT22;6216;51.146;7.008;2022-08-21T09:09:09;21.70;99.90
12307;DHT22;6216;51.146;7.008;2022-08-21T09:11:44;21.70;99.90
12307;DHT22;6216;51.146;7.008;2022-08-21T09:14:24;21.80;99.90
12307;DHT22;6216;51.146;7.008;2022-08-21T09:17:01;21.80;99.90
12307;DHT22;6216;51.146;7.008;2022-08-21T09:19:40;21.90;99.90
12307;DHT22;6216;51.146;7.008;2022-08-21T09:22:18;22.10;99.90
12307;DHT22;6216;51.146;7.008;2022-08-21T09:24:53;22.20;99.90
12307;DHT22;6216;51.146;7.008;2022-08-21T09:27:25;22.20;99.90
12307;DHT22;6216;51.146;7.008;2022-08-21T09:29:54;22.10;99.90
12307;DHT22;6216;51.146;7.008;2022-08-21T09:32:25;22.10;99.90
12307;DHT22;6216;51.146;7.008;2022-08-21T09:35:10;22.10;99.90
12307;DHT22;6216;51.146;7.008;2022-08-21T09:37:48;22.20;99.90
12307;DHT22;6216;51.146;7.008;2022-08-21T09:40:27;22.30;99.90
12307;DHT22;6216;51.146;7.008;2022-08-21T09:43:01;22.40;99.90
12307;DHT22;6216;51.146;7.008;2022-08-21T09:45:31;22.50;99.90
12307;DHT22;6216;51.146;7.008;2022-08-21T09:48:11;22.60;99.90
12307;DHT22;6216;51.146;7.008;2022-08-21T09:50:40;22.60;99.60
12307;DHT22;6216;51.146;7.008;2022-08-21T09:53:16;22.70;99.50
12307;DHT22;6216;51.146;7.008;2022-08-21T09:55:52;22.80;99.70
12307;DHT22;6216;51.146;7.008;2022-08-21T09:58:39;23.00;99.90
12307;DHT22;6216;51.146;7.008;2022-08-21T10:01:13;23.20;99.90
12307;DHT22;6216;51.146;7.008;2022-08-21T10:03:42;23.40;98.00
12307;DHT22;6216;51.146;7.008;2022-08-21T10:06:19;23.50;97.60
12307;DHT22;6216;51.146;7.008;2022-08-21T10:08:50;23.60;98.40
12307;DHT22;6216;51.146;7.008;2022-08-21T10:11:24;23.80;98.10
12307;DHT22;6216;51.146;7.008;2022-08-21T10:14:01;24.00;97.60
12307;DHT22;6216;51.146;7.008;2022-08-21T10:16:41;24.10;96.70
12307;DHT22;6216;51.146;7.008;2022-08-21T10:19:19;24.20;96.10
12307;DHT22;6216;51.146;7.008;2022-08-21T10:22:01;24.30;95.70
12307;DHT22;6216;51.146;7.008;2022-08-21T10:24:34;24.30;96.00
12307;DHT22;6216;51.146;7.008;2022-08-21T10:27:16;24.50;95.80
12307;DHT22;6216;51.146;7.008;2022-08-21T10:29:55;24.60;95.10
12307;DHT22;6216;51.146;7.008;2022-08-21T10:32:57;24.70;94.30
12307;DHT22;6216;51.146;7.008;2022-08-21T10:35:31;24.70;94.70
12307;DHT22;6216;51.146;7.008;2022-08-21T10:38:26;24.80;94.70
12307;DHT22;6216;51.146;7.008;2022-08-21T10:41:28;24.90;94.20
12307;DHT22;6216;51.146;7.008;2022-08-21T10:44:08;25.00;94.00
12307;DHT22;6216;51.146;7.008;2022-08-21T10:46:45;25.10;94.80
12307;DHT22;6216;51.146;7.008;2022-08-21T10:49:25;25.40;94.70
12307;DHT22;6216;51.146;7.008;2022-08-21T10:54:56;25.50;92.80
12307;DHT22;6216;51.146;7.008;2022-08-21T10:57:40;25.60;92.20
12307;DHT22;6216;51.146;7.008;2022-08-21T11:00:13;25.50;92.50
12307;DHT22;6216;51.146;7.008;2022-08-21T11:02:46;25.50;92.90
12307;DHT22;6216;51.146;7.008;2022-08-21T11:05:23;25.50;92.80
12307;DHT22;6216;51.146;7.008;2022-08-21T11:07:55;25.60;93.20
12307;DHT22;6216;51.146;7.008;2022-08-21T11:10:32;25.70;93.40
12307;DHT22;6216;51.146;7.008;2022-08-21T11:13:12;25.90;93.80
12307;DHT22;6216;51.146;7.008;2022-08-21T11:15:49;26.00;92.70
12307;DHT22;6216;51.146;7.008;2022-08-21T11:18:24;26.00;92.00
12307;DHT22;6216;51.146;7.008;2022-08-21T11:21:03;26.00;93.00
12307;DHT22;6216;51.146;7.008;2022-08-21T11:23:38;26.30;92.40
12307;DHT22;6216;51.146;7.008;2022-08-21T11:26:13;26.50;93.00
12307;DHT22;6216;51.146;7.008;2022-08-21T11:28:48;26.70;92.80
12307;DHT22;6216;51.146;7.008;2022-08-21T11:31:31;26.80;92.10
12307;DHT22;6216;51.146;7.008;2022-08-21T11:34:12;27.00;91.80
12307;DHT22;6216;51.146;7.008;2022-08-21T11:36:50;27.00;91.60
12307;DHT22;6216;51.146;7.008;2022-08-21T11:39:25;27.10;91.30
12307;DHT22;6216;51.146;7.008;2022-08-21T11:42:02;27.20;90.60
12307;DHT22;6216;51.146;7.008;2022-08-21T11:44:44;27.40;90.90
12307;DHT22;6216;51.146;7.008;2022-08-21T11:47:23;27.60;90.40
12307;DHT22;6216;51.146;7.008;2022-08-21T11:50:02;27.80;90.00
12307;DHT22;6216;51.146;7.008;2022-08-21T11:52:59;27.90;90.10
12307;DHT22;6216;51.146;7.008;2022-08-21T11:55:32;28.20;90.00
12307;DHT22;6216;51.146;7.008;2022-08-21T11:58:06;28.40;89.90
12307;DHT22;6216;51.146;7.008;2022-08-21T12:00:39;28.60;86.90
12307;DHT22;6216;51.146;7.008;2022-08-21T12:03:12;28.60;86.60
12307;DHT22;6216;51.146;7.008;2022-08-21T12:05:43;28.70;86.10
12307;DHT22;6216;51.146;7.008;2022-08-21T12:08:26;28.70;85.90
12307;DHT22;6216;51.146;7.008;2022-08-21T12:11:01;28.40;84.90
12307;DHT22;6216;51.146;7.008;2022-08-21T12:13:32;28.40;87.00
12307;DHT22;6216;51.146;7.008;2022-08-21T12:16:10;28.50;86.20
12307;DHT22;6216;51.146;7.008;2022-08-21T12:18:39;28.70;86.60
12307;DHT22;6216;51.146;7.008;2022-08-21T12:21:26;28.80;84.90
12307;DHT22;6216;51.146;7.008;2022-08-21T12:24:05;28.90;83.50
12307;DHT22;6216;51.146;7.008;2022-08-21T12:26:49;29.10;85.50
12307;DHT22;6216;51.146;7.008;2022-08-21T12:29:23;29.40;84.20
12307;DHT22;6216;51.146;7.008;2022-08-21T12:31:58;29.50;84.00
12307;DHT22;6216;51.146;7.008;2022-08-21T12:34:34;29.70;83.60
12307;DHT22;6216;51.146;7.008;2022-08-21T12:37:11;29.90;84.30
12307;DHT22;6216;51.146;7.008;2022-08-21T12:39:46;30.20;84.10
12307;DHT22;6216;51.146;7.008;2022-08-21T12:42:18;30.30;80.70
12307;DHT22;6216;51.146;7.008;2022-08-21T12:44:50;30.10;80.60
12307;DHT22;6216;51.146;7.008;2022-08-21T12:47:27;30.20;79.70
12307;DHT22;6216;51.146;7.008;2022-08-21T12:50:02;30.20;80.00
12307;DHT22;6216;51.146;7.008;2022-08-21T12:52:34;30.30;80.40
12307;DHT22;6216;51.146;7.008;2022-08-21T12:55:11;30.50;81.40
12307;DHT22;6216;51.146;7.008;2022-08-21T12:57:40;30.70;80.60
12307;DHT22;6216;51.146;7.008;2022-08-21T13:00:12;30.80;79.30
12307;DHT22;6216;51.146;7.008;2022-08-21T13:02:45;30.80;78.20
12307;DHT22;6216;51.146;7.008;2022-08-21T13:05:18;30.70;75.80
12307;DHT22;6216;51.146;7.008;2022-08-21T13:07:48;30.60;76.30
12307;DHT22;6216;51.146;7.008;2022-08-21T13:10:21;30.70;74.90
12307;DHT22;6216;51.146;7.008;2022-08-21T13:12:49;30.60;74.80
12307;DHT22;6216;51.146;7.008;2022-08-21T13:15:25;30.50;74.10
12307;DHT22;6216;51.146;7.008;2022-08-21T13:18:00;30.10;74.60
12307;DHT22;6216;51.146;7.008;2022-08-21T13:20:32;30.00;76.00
12307;DHT22;6216;51.146;7.008;2022-08-21T13:23:01;30.10;76.50
12307;DHT22;6216;51.146;7.008;2022-08-21T13:25:35;30.20;76.60
12307;DHT22;6216;51.146;7.008;2022-08-21T13:28:06;30.10;75.60
12307;DHT22;6216;51.146;7.008;2022-08-21T13:30:39;29.90;76.90
12307;DHT22;6216;51.146;7.008;2022-08-21T13:33:10;29.90;77.30
12307;DHT22;6216;51.146;7.008;2022-08-21T13:35:48;30.00;77.40
12307;DHT22;6216;51.146;7.008;2022-08-21T13:38:18;30.20;75.00
12307;DHT22;6216;51.146;7.008;2022-08-21T13:40:57;30.20;74.20
12307;DHT22;6216;51.146;7.008;2022-08-21T13:43:28;30.30;75.50
12307;DHT22;6216;51.146;7.008;2022-08-21T13:45:58;30.40;75.80
12307;DHT22;6216;51.146;7.008;2022-08-21T13:48:30;30.50;75.40
12307;DHT22;6216;51.146;7.008;2022-08-21T13:50:59;30.50;74.90
12307;DHT22;6216;51.146;7.008;2022-08-21T13:53:30;30.60;74.50
12307;DHT22;6216;51.146;7.008;2022-08-21T13:56:00;30.60;73.80
12307;DHT22;6216;51.146;7.008;2022-08-21T13:58:30;30.50;74.50
12307;DHT22;6216;51.146;7.008;2022-08-21T14:01:00;30.40;74.80
12307;DHT22;6216;51.146;7.008;2022-08-21T14:03:34;30.30;71.40
12307;DHT22;6216;51.146;7.008;2022-08-21T14:06:10;30.30;72.70
12307;DHT22;6216;51.146;7.008;2022-08-21T14:08:40;30.40;72.50
12307;DHT22;6216;51.146;7.008;2022-08-21T14:11:12;30.50;72.20
12307;DHT22;6216;51.146;7.008;2022-08-21T14:13:42;30.60;72.00
12307;DHT22;6216;51.146;7.008;2022-08-21T14:16:15;30.60;71.60
12307;DHT22;6216;51.146;7.008;2022-08-21T14:18:49;30.70;69.90
12307;DHT22;6216;51.146;7.008;2022-08-21T14:21:30;30.70;72.00
12307;DHT22;6216;51.146;7.008;2022-08-21T14:24:02;30.80;73.60
12307;DHT22;6216;51.146;7.008;2022-08-21T14:26:33;30.70;72.50
12307;DHT22;6216;51.146;7.008;2022-08-21T14:29:07;30.70;71.20
12307;DHT22;6216;51.146;7.008;2022-08-21T14:31:37;30.60;71.00
12307;DHT22;6216;51.146;7.008;2022-08-21T14:34:11;30.40;71.30
12307;DHT22;6216;51.146;7.008;2022-08-21T14:36:46;30.40;72.60
12307;DHT22;6216;51.146;7.008;2022-08-21T14:39:15;30.40;72.40
12307;DHT22;6216;51.146;7.008;2022-08-21T14:41:45;30.40;72.80
12307;DHT22;6216;51.146;7.008;2022-08-21T14:44:16;30.40;73.50
12307;DHT22;6216;51.146;7.008;2022-08-21T14:46:44;30.40;73.50
12307;DHT22;6216;51.146;7.008;2022-08-21T14:49:22;30.30;72.90
12307;DHT22;6216;51.146;7.008;2022-08-21T14:51:50;30.20;72.20
12307;DHT22;6216;51.146;7.008;2022-08-21T14:54:23;29.90;72.80
12307;DHT22;6216;51.146;7.008;2022-08-21T14:57:00;30.00;71.60
12307;DHT22;6216;51.146;7.008;2022-08-21T14:59:29;29.90;72.20
12307;DHT22;6216;51.146;7.008;2022-08-21T15:01:59;29.80;72.60
12307;DHT22;6216;51.146;7.008;2022-08-21T15:04:27;29.80;73.30
12307;DHT22;6216;51.146;7.008;2022-08-21T15:06:55;29.80;74.00
12307;DHT22;6216;51.146;7.008;2022-08-21T15:09:23;29.70;73.80
12307;DHT22;6216;51.146;7.008;2022-08-21T15:11:53;29.80;74.00
12307;DHT22;6216;51.146;7.008;2022-08-21T15:14:26;29.80;73.30
12307;DHT22;6216;51.146;7.008;2022-08-21T15:16:55;29.90;73.60
12307;DHT22;6216;51.146;7.008;2022-08-21T15:19:24;29.80;71.50
12307;DHT22;6216;51.146;7.008;2022-08-21T15:21:52;29.80;71.60
12307;DHT22;6216;51.146;7.008;2022-08-21T15:24:20;29.80;72.30
12307;DHT22;6216;51.146;7.008;2022-08-21T15:26:48;29.80;73.10
12307;DHT22;6216;51.146;7.008;2022-08-21T15:29:16;29.80;73.30
12307;DHT22;6216;51.146;7.008;2022-08-21T15:31:54;29.60;73.60
12307;DHT22;6216;51.146;7.008;2022-08-21T15:34:23;29.50;74.10
12307;DHT22;6216;51.146;7.008;2022-08-21T15:37:01;29.50;74.70
12307;DHT22;6216;51.146;7.008;2022-08-21T15:39:34;29.50;74.10
12307;DHT22;6216;51.146;7.008;2022-08-21T15:42:05;29.40;71.70
12307;DHT22;6216;51.146;7.008;2022-08-21T15:44:38;29.10;71.20
12307;DHT22;6216;51.146;7.008;2022-08-21T15:47:11;28.90;72.30
12307;DHT22;6216;51.146;7.008;2022-08-21T15:49:43;28.80;72.30
12307;DHT22;6216;51.146;7.008;2022-08-21T15:52:12;28.60;72.80
12307;DHT22;6216;51.146;7.008;2022-08-21T15:54:40;28.60;73.50
12307;DHT22;6216;51.146;7.008;2022-08-21T15:57:09;28.60;73.30
12307;DHT22;6216;51.146;7.008;2022-08-21T15:59:41;28.50;72.70
12307;DHT22;6216;51.146;7.008;2022-08-21T16:02:14;28.50;73.20
12307;DHT22;6216;51.146;7.008;2022-08-21T16:04:42;28.40;73.30
12307;DHT22;6216;51.146;7.008;2022-08-21T16:07:11;28.50;73.50
12307;DHT22;6216;51.146;7.008;2022-08-21T16:09:39;28.40;73.50
12307;DHT22;6216;51.146;7.008;2022-08-21T16:12:08;28.40;73.80
12307;DHT22;6216;51.146;7.008;2022-08-21T16:14:37;28.30;75.00
12307;DHT22;6216;51.146;7.008;2022-08-21T16:17:06;28.30;75.50